Aliq, Pennsylvania
Current Conditions -  °F | °C
As of 1:51 AM on Wednesday 22 Oct 2014 (Local Time) from KPIT Reporting Station
Light Rain Light Rain  
Wind Chill: 43°   Ceiling: 1000
Heat Index: 48°   Visibility: 9mi
Dew Point: 46°   Wind: 13mph
Humidity: 93%   Direction: 330°NNW
Pressure: 30.02"   Gusts: NA
Location:  40.5921°N, 80.3191°W
Report Text: KPIT 220551Z 33011KT 9SM -RA OVC010 09/08 A3002 RMK AO2 DZE04RAB04 SLP176 P0003 60006 T00890078 10089 20083 58002
Loading
Personal Weather Stations






























Interactive Weather Map
Tropical Storm Tracking
New forecast layout! Learn more

10-Day Weather Forecast

Advertisements
Track Severe Weather on mobile